createdAt,value
2023-03-23T15:58:39.925Z,16.10
2023-03-23T16:01:13.340Z,16.10
2023-03-23T16:03:50.135Z,16.00
2023-03-23T16:06:24.915Z,15.90
2023-03-23T16:08:55.526Z,15.90
2023-03-23T16:11:25.905Z,15.90
2023-03-23T16:13:58.651Z,15.90
2023-03-23T16:16:29.234Z,15.80
2023-03-23T16:18:57.685Z,15.60
2023-03-23T16:21:28.179Z,15.50
2023-03-23T16:23:57.093Z,15.40
2023-03-23T16:26:25.766Z,15.20
2023-03-23T16:29:00.057Z,15.10
2023-03-23T16:31:31.443Z,15.10
2023-03-23T16:33:59.694Z,15.00
2023-03-23T16:36:28.078Z,15.00
2023-03-23T16:38:56.291Z,14.90
2023-03-23T16:41:24.544Z,14.90
2023-03-23T16:43:52.876Z,14.80
2023-03-23T16:46:22.645Z,14.80
2023-03-23T16:48:51.612Z,14.70
2023-03-23T16:51:20.132Z,14.60
2023-03-23T16:53:48.596Z,14.60
2023-03-23T16:56:16.855Z,14.60
2023-03-23T16:58:45.170Z,14.50
2023-03-23T17:01:31.929Z,14.50
2023-03-23T17:04:00.505Z,14.30
2023-03-23T17:06:29.226Z,14.30
2023-03-23T17:08:57.657Z,14.30
2023-03-23T17:11:26.024Z,14.30
2023-03-23T17:13:54.424Z,14.30
2023-03-23T17:16:22.657Z,14.30
2023-03-23T17:18:52.316Z,14.30
2023-03-23T17:21:20.714Z,14.20
2023-03-23T17:23:49.028Z,14.20
2023-03-23T17:26:20.306Z,14.10
2023-03-23T17:28:48.694Z,14.00
2023-03-23T17:31:18.806Z,13.90
2023-03-23T17:33:47.232Z,13.90
2023-03-23T17:36:17.262Z,13.80
2023-03-23T17:38:48.250Z,13.80
2023-03-23T17:41:21.104Z,13.80
2023-03-23T17:43:54.982Z,13.80
2023-03-23T17:46:23.297Z,13.80
2023-03-23T17:48:51.959Z,13.80
2023-03-23T17:51:22.297Z,13.80
2023-03-23T17:53:52.468Z,13.80
2023-03-23T17:56:21.035Z,13.80
2023-03-23T17:58:49.634Z,13.80
2023-03-23T18:01:18.097Z,13.80
2023-03-23T18:03:48.555Z,13.80
2023-03-23T18:06:18.526Z,13.80
2023-03-23T18:08:48.281Z,13.80
2023-03-23T18:11:16.801Z,13.80
2023-03-23T18:13:44.995Z,13.70
2023-03-23T18:16:13.346Z,13.80
2023-03-23T18:18:41.663Z,13.80
2023-03-23T18:21:12.271Z,13.70
2023-03-23T18:23:52.999Z,13.60
2023-03-23T18:26:26.606Z,13.60
2023-03-23T18:28:57.371Z,13.60
2023-03-23T18:31:25.973Z,13.60
2023-03-23T18:33:57.677Z,13.50
2023-03-23T18:36:27.969Z,13.50
2023-03-23T18:38:58.212Z,13.40
2023-03-23T18:41:28.375Z,13.40
2023-03-23T18:43:57.805Z,13.40
2023-03-23T18:46:32.145Z,13.40
2023-03-23T18:49:00.545Z,13.40
2023-03-23T18:51:30.911Z,13.40
2023-03-23T18:53:59.264Z,13.30
2023-03-23T18:56:29.117Z,13.30
2023-03-23T18:58:57.433Z,13.20
2023-03-23T19:01:25.724Z,13.30
2023-03-23T19:03:54.418Z,13.20
2023-03-23T19:06:24.751Z,13.20
2023-03-23T19:09:01.558Z,13.10
2023-03-23T19:11:37.336Z,13.00
2023-03-23T19:14:05.797Z,12.90
2023-03-23T19:16:36.400Z,12.80
2023-03-23T19:19:06.282Z,12.80
2023-03-23T19:21:34.674Z,12.80
2023-03-23T19:24:04.070Z,12.70
2023-03-23T19:26:36.710Z,12.70
2023-03-23T19:29:26.130Z,12.70
2023-03-23T19:31:56.127Z,12.70
2023-03-23T19:34:25.589Z,12.80
2023-03-23T19:37:03.268Z,12.80
2023-03-23T19:39:34.034Z,12.70
2023-03-23T19:42:04.272Z,12.70
2023-03-23T19:44:34.858Z,12.70
2023-03-23T19:47:03.321Z,12.70
2023-03-23T19:49:33.834Z,12.70
2023-03-23T19:52:08.409Z,12.60
2023-03-23T19:54:40.956Z,12.60
2023-03-23T19:57:10.512Z,12.60
2023-03-23T19:59:40.387Z,12.60
2023-03-23T20:02:08.859Z,12.50
2023-03-23T20:04:37.404Z,12.50
2023-03-23T20:07:07.671Z,12.40
2023-03-23T20:09:38.233Z,12.40
2023-03-23T20:12:07.216Z,12.40
2023-03-23T20:14:37.518Z,12.40
2023-03-23T20:17:09.845Z,12.40
2023-03-23T20:19:38.491Z,12.50
2023-03-23T20:22:07.282Z,12.50
2023-03-23T20:24:35.752Z,12.60
2023-03-23T20:27:05.335Z,12.70
2023-03-23T20:29:33.739Z,12.70
2023-03-23T20:32:02.027Z,12.80
2023-03-23T20:34:31.808Z,12.80
2023-03-23T20:37:02.680Z,12.80
2023-03-23T20:39:33.261Z,12.80
2023-03-23T20:42:05.875Z,12.80
2023-03-23T20:44:35.125Z,12.80
2023-03-23T20:47:07.876Z,12.90
2023-03-23T20:49:40.548Z,12.90
2023-03-23T20:52:11.733Z,12.90
2023-03-23T20:54:45.913Z,12.80
2023-03-23T20:57:20.794Z,12.80
2023-03-23T20:59:49.142Z,12.80
2023-03-23T21:02:20.375Z,12.80
2023-03-23T21:04:55.677Z,12.80
2023-03-23T21:07:31.153Z,12.90
2023-03-23T21:10:01.815Z,12.80
2023-03-23T21:12:30.012Z,12.90
2023-03-23T21:14:58.790Z,12.80
2023-03-23T21:17:27.283Z,12.80
2023-03-23T21:19:57.145Z,12.80
2023-03-23T21:22:25.749Z,12.80
2023-03-23T21:25:08.594Z,12.80
2023-03-23T21:27:38.172Z,12.80
2023-03-23T21:30:08.298Z,12.80
2023-03-23T21:32:37.727Z,12.80
2023-03-23T21:35:09.057Z,12.80
2023-03-23T21:37:37.518Z,12.80
2023-03-23T21:40:12.943Z,12.70
2023-03-23T21:42:43.193Z,12.70
2023-03-23T21:45:12.963Z,12.60
2023-03-23T21:47:43.026Z,12.50
2023-03-23T21:50:14.051Z,12.50
2023-03-23T21:52:43.396Z,12.50
2023-03-23T21:55:12.512Z,12.40
2023-03-23T21:57:42.476Z,12.30
2023-03-23T22:00:14.959Z,12.30
2023-03-23T22:02:44.129Z,12.20
2023-03-23T22:05:14.147Z,12.20
2023-03-23T22:07:44.002Z,12.00
2023-03-23T22:10:12.681Z,12.00
2023-03-23T22:12:41.794Z,12.00
2023-03-23T22:15:15.803Z,11.90
2023-03-23T22:17:44.411Z,11.80
2023-03-23T22:20:15.521Z,11.80
2023-03-23T22:22:43.880Z,11.80
2023-03-23T22:25:13.526Z,11.80
2023-03-23T22:27:42.856Z,11.80
2023-03-23T22:30:12.737Z,11.80
2023-03-23T22:32:41.364Z,11.70
2023-03-23T22:35:12.621Z,11.70
2023-03-23T22:37:42.415Z,11.60
2023-03-23T22:40:11.443Z,11.60
2023-03-23T22:42:39.796Z,11.60
2023-03-23T22:45:09.688Z,11.60
2023-03-23T22:47:39.350Z,11.70
2023-03-23T22:50:08.189Z,11.70
2023-03-23T22:52:37.484Z,11.70
2023-03-23T22:55:09.506Z,11.60
2023-03-23T22:57:37.893Z,11.60
2023-03-23T23:00:14.717Z,11.60
2023-03-23T23:02:43.718Z,11.60
2023-03-23T23:05:13.258Z,11.60
2023-03-23T23:07:41.913Z,11.60
2023-03-23T23:10:12.085Z,11.60
2023-03-23T23:12:42.399Z,11.50
2023-03-23T23:15:14.502Z,11.50
2023-03-23T23:17:43.177Z,11.50
2023-03-23T23:20:14.155Z,11.50
2023-03-23T23:22:43.871Z,11.50
2023-03-23T23:25:14.731Z,11.50
2023-03-23T23:27:43.126Z,11.50
2023-03-23T23:30:13.507Z,11.60
2023-03-23T23:32:42.935Z,11.60
2023-03-23T23:35:12.707Z,11.50
2023-03-23T23:37:41.322Z,11.50
2023-03-23T23:40:10.913Z,11.40
2023-03-23T23:42:40.809Z,11.30
2023-03-23T23:45:10.714Z,11.40
2023-03-23T23:47:39.644Z,11.30
2023-03-23T23:50:09.778Z,11.30
2023-03-23T23:52:39.339Z,11.30
2023-03-23T23:55:10.403Z,11.30
2023-03-23T23:57:40.206Z,11.40
